createdAt,value
2018-04-22T00:00:01.000Z,13.49
2018-04-22T00:01:01.243Z,13.44
2018-04-22T00:02:01.484Z,13.41
2018-04-22T00:03:01.727Z,13.48
2018-04-22T00:04:01.970Z,13.42
2018-04-22T00:05:02.214Z,13.49
2018-04-22T00:06:02.457Z,13.41
2018-04-22T00:07:02.699Z,13.54
2018-04-22T00:08:02.940Z,13.45
2018-04-22T00:09:03.184Z,13.39
2018-04-22T00:10:03.432Z,13.33
2018-04-22T00:11:03.671Z,13.38
2018-04-22T00:12:03.913Z,13.38
2018-04-22T00:13:04.156Z,13.29
2018-04-22T00:14:04.399Z,13.07
2018-04-22T00:15:04.640Z,13.14
2018-04-22T00:16:04.886Z,13.19
2018-04-22T00:17:05.128Z,13.23
2018-04-22T00:18:05.372Z,13.26
2018-04-22T00:19:05.614Z,13.14
2018-04-22T00:20:05.858Z,13.36
2018-04-22T00:21:06.101Z,13.41
2018-04-22T00:22:06.345Z,13.46
2018-04-22T00:23:06.589Z,13.52
2018-04-22T00:24:06.830Z,13.44
2018-04-22T00:25:07.071Z,13.32
2018-04-22T00:26:07.314Z,13.20
2018-04-22T00:27:07.554Z,13.26
2018-04-22T00:28:07.797Z,13.19
2018-04-22T00:29:08.037Z,13.12
2018-04-22T00:30:08.284Z,13.14
2018-04-22T00:31:08.521Z,13.07
2018-04-22T00:32:08.765Z,13.00
2018-04-22T00:33:09.005Z,12.97
2018-04-22T00:34:09.249Z,12.89
2018-04-22T00:35:09.492Z,12.92
2018-04-22T00:36:09.736Z,12.90
2018-04-22T00:37:09.977Z,12.71
2018-04-22T00:38:10.223Z,12.71
2018-04-22T00:39:10.466Z,12.62
2018-04-22T00:40:10.709Z,12.62
2018-04-22T00:41:10.951Z,12.57
2018-04-22T00:42:11.193Z,12.59
2018-04-22T00:43:11.434Z,12.45
2018-04-22T00:44:11.674Z,12.47
2018-04-22T00:45:11.913Z,12.41
2018-04-22T00:46:12.163Z,12.37
2018-04-22T00:47:12.405Z,12.37
2018-04-22T00:48:12.648Z,12.42
2018-04-22T00:49:12.890Z,12.35
2018-04-22T00:50:13.133Z,12.42
2018-04-22T00:51:13.376Z,12.53
2018-04-22T00:52:13.616Z,12.54
2018-04-22T00:53:13.860Z,12.60
2018-04-22T00:54:14.103Z,12.64
2018-04-22T00:55:14.345Z,12.57
2018-04-22T00:56:14.588Z,12.59
2018-04-22T00:57:14.831Z,12.50
2018-04-22T00:58:15.070Z,12.60
2018-04-22T00:59:15.313Z,12.47
2018-04-22T01:00:15.555Z,12.45
2018-04-22T01:01:15.797Z,12.31
2018-04-22T01:02:16.042Z,12.29
2018-04-22T01:03:16.282Z,12.34
2018-04-22T01:04:16.527Z,12.27
2018-04-22T01:05:16.769Z,12.21
2018-04-22T01:06:17.012Z,12.12
2018-04-22T01:07:17.253Z,12.16
2018-04-22T01:08:17.502Z,12.12
2018-04-22T01:09:17.745Z,12.13
2018-04-22T01:10:17.982Z,12.12
2018-04-22T01:11:18.223Z,12.02
2018-04-22T01:12:18.468Z,12.04
2018-04-22T01:13:18.709Z,12.02
2018-04-22T01:14:18.950Z,11.99
2018-04-22T01:15:19.221Z,12.05
2018-04-22T01:16:19.438Z,12.04
2018-04-22T01:17:19.687Z,12.01
2018-04-22T01:18:19.923Z,12.04
2018-04-22T01:19:20.168Z,11.96
2018-04-22T01:20:20.413Z,11.96
2018-04-22T01:21:20.656Z,12.12
2018-04-22T01:22:20.897Z,12.05
2018-04-22T01:23:21.139Z,11.94
2018-04-22T01:24:21.381Z,12.07
2018-04-22T01:25:21.631Z,11.91
2018-04-22T01:26:21.868Z,11.91
2018-04-22T01:27:22.108Z,12.10
2018-04-22T01:28:22.351Z,12.10
2018-04-22T01:29:22.593Z,12.17
2018-04-22T01:30:22.834Z,12.20
2018-04-22T01:31:23.079Z,12.10
2018-04-22T01:32:23.321Z,12.19
2018-04-22T01:33:23.561Z,12.14
2018-04-22T01:34:23.802Z,12.05
2018-04-22T01:35:24.043Z,12.14
2018-04-22T01:36:24.288Z,12.19
2018-04-22T01:37:24.528Z,12.35
2018-04-22T01:38:24.772Z,12.39
2018-04-22T01:39:25.015Z,12.42
2018-04-22T01:40:25.255Z,12.34
2018-04-22T01:41:25.497Z,12.39
2018-04-22T01:42:25.740Z,12.27
2018-04-22T01:43:25.982Z,12.16
2018-04-22T01:44:26.224Z,12.24
2018-04-22T01:45:26.464Z,12.28
2018-04-22T01:46:26.706Z,12.21
2018-04-22T01:47:26.947Z,12.14
2018-04-22T01:48:27.229Z,12.12
2018-04-22T01:49:27.432Z,12.21
2018-04-22T01:50:27.675Z,12.19
2018-04-22T01:51:27.915Z,12.24
2018-04-22T01:52:28.156Z,12.34
2018-04-22T01:53:28.401Z,12.27
2018-04-22T01:54:28.641Z,12.16
2018-04-22T01:55:28.881Z,12.17
2018-04-22T01:56:29.124Z,12.10
2018-04-22T01:57:29.366Z,12.07
2018-04-22T01:58:29.607Z,12.07
2018-04-22T01:59:29.849Z,12.09
2018-04-22T02:00:30.090Z,12.05
2018-04-22T02:01:30.332Z,12.19
2018-04-22T02:02:30.574Z,12.09
2018-04-22T02:03:30.817Z,12.02
2018-04-22T02:04:31.059Z,12.04
2018-04-22T02:05:31.307Z,12.04
2018-04-22T02:06:31.540Z,12.07
2018-04-22T02:07:31.784Z,11.96
2018-04-22T02:08:32.025Z,11.85
2018-04-22T02:09:32.266Z,11.88
2018-04-22T02:10:32.506Z,11.95
2018-04-22T02:11:32.753Z,11.94
2018-04-22T02:12:32.992Z,11.90
2018-04-22T02:13:33.235Z,11.94
2018-04-22T02:14:33.474Z,12.04
2018-04-22T02:15:33.717Z,11.96
2018-04-22T02:16:33.958Z,12.02
2018-04-22T02:17:34.200Z,12.05
2018-04-22T02:18:34.438Z,12.16
2018-04-22T02:19:34.685Z,12.19
2018-04-22T02:20:34.921Z,12.28
2018-04-22T02:21:35.165Z,12.27
2018-04-22T02:22:35.409Z,12.23
2018-04-22T02:23:35.648Z,12.28
2018-04-22T02:24:35.891Z,12.23
2018-04-22T02:25:36.135Z,12.28
2018-04-22T02:26:36.375Z,12.31
2018-04-22T02:27:36.617Z,12.34
2018-04-22T02:28:36.862Z,12.32
2018-04-22T02:29:37.101Z,12.21
2018-04-22T02:30:37.344Z,12.34
2018-04-22T02:31:37.585Z,12.31
2018-04-22T02:32:37.829Z,12.31
2018-04-22T02:33:38.074Z,12.32
2018-04-22T02:34:38.322Z,12.39
2018-04-22T02:35:38.556Z,12.46
2018-04-22T02:36:38.798Z,12.38
2018-04-22T02:37:39.038Z,12.39
2018-04-22T02:38:39.281Z,12.34
2018-04-22T02:39:39.520Z,12.38
2018-04-22T02:40:39.763Z,12.32
2018-04-22T02:41:40.000Z,12.38
2018-04-22T02:42:40.257Z,12.34
2018-04-22T02:43:40.484Z,12.27
2018-04-22T02:44:40.727Z,12.31
2018-04-22T02:45:40.970Z,12.20
2018-04-22T02:46:41.212Z,12.23
2018-04-22T02:47:41.455Z,12.27
2018-04-22T02:48:41.713Z,12.23
2018-04-22T02:49:41.940Z,12.35
2018-04-22T02:50:42.179Z,12.27
2018-04-22T02:51:42.420Z,12.32
2018-04-22T02:52:42.663Z,12.28
2018-04-22T02:53:42.917Z,12.32
2018-04-22T02:54:43.146Z,12.29
2018-04-22T02:55:43.379Z,12.34
2018-04-22T02:56:43.619Z,12.24
2018-04-22T02:57:43.865Z,12.16
2018-04-22T02:58:44.101Z,12.16
2018-04-22T02:59:44.346Z,12.17
2018-04-22T03:00:44.588Z,12.01
2018-04-22T03:01:44.827Z,12.01
2018-04-22T03:02:45.065Z,11.99
2018-04-22T03:03:45.311Z,12.07
2018-04-22T03:04:45.551Z,12.04
2018-04-22T03:05:45.791Z,12.16
2018-04-22T03:06:46.032Z,12.24
2018-04-22T03:07:46.280Z,12.13
2018-04-22T03:08:46.519Z,12.28
2018-04-22T03:09:46.758Z,12.16
2018-04-22T03:10:47.001Z,12.17
2018-04-22T03:11:47.242Z,12.09
2018-04-22T03:12:47.483Z,11.91
2018-04-22T03:13:47.723Z,11.80
2018-04-22T03:14:47.963Z,11.83
2018-04-22T03:15:48.205Z,11.79
2018-04-22T03:16:48.446Z,11.69
2018-04-22T03:17:48.688Z,11.57
2018-04-22T03:18:48.968Z,11.61
2018-04-22T03:19:49.170Z,11.58
2018-04-22T03:20:49.411Z,11.55
2018-04-22T03:21:49.651Z,11.40
2018-04-22T03:22:49.892Z,11.35
2018-04-22T03:23:50.134Z,11.35
2018-04-22T03:24:50.375Z,11.39
2018-04-22T03:25:50.615Z,11.37
2018-04-22T03:26:50.857Z,11.25
2018-04-22T03:27:51.098Z,11.37
2018-04-22T03:28:51.338Z,11.54
2018-04-22T03:29:51.581Z,11.55
2018-04-22T03:30:51.823Z,11.49
2018-04-22T03:31:52.083Z,11.51
2018-04-22T03:32:52.303Z,11.42
2018-04-22T03:33:52.547Z,11.47
2018-04-22T03:34:52.788Z,11.58
2018-04-22T03:35:53.028Z,11.54
2018-04-22T03:36:53.271Z,11.49
2018-04-22T03:37:53.511Z,11.55
2018-04-22T03:38:53.752Z,11.47
2018-04-22T03:39:53.994Z,11.47
2018-04-22T03:40:54.235Z,11.35
2018-04-22T03:41:54.476Z,11.32
2018-04-22T03:42:54.716Z,11.36
2018-04-22T03:43:54.959Z,11.32
2018-04-22T03:44:55.202Z,11.33
2018-04-22T03:45:55.443Z,11.44
2018-04-22T03:46:55.685Z,11.37
2018-04-22T03:47:55.926Z,11.37
2018-04-22T03:48:56.167Z,11.35
2018-04-22T03:49:56.406Z,11.29
2018-04-22T03:50:56.649Z,11.28
2018-04-22T03:51:56.891Z,11.36
2018-04-22T03:52:57.131Z,11.37
2018-04-22T03:53:57.372Z,11.51
2018-04-22T03:54:57.614Z,11.51
2018-04-22T03:55:57.856Z,11.44
2018-04-22T03:56:58.095Z,11.52
2018-04-22T03:57:58.338Z,11.44
2018-04-22T03:58:58.580Z,11.49
2018-04-22T03:59:58.823Z,11.47
2018-04-22T04:00:59.062Z,11.46
2018-04-22T04:01:59.305Z,11.36
2018-04-22T04:02:59.553Z,11.36
2018-04-22T04:03:59.792Z,11.35
2018-04-22T04:05:00.034Z,11.49
2018-04-22T04:06:00.275Z,11.43
2018-04-22T04:07:00.515Z,11.54
2018-04-22T04:08:00.755Z,11.49
2018-04-22T04:09:00.997Z,11.54
2018-04-22T04:10:01.240Z,11.43
2018-04-22T04:11:01.482Z,11.46
2018-04-22T04:12:01.723Z,11.51
2018-04-22T04:13:01.967Z,11.46
2018-04-22T04:14:02.207Z,11.46
2018-04-22T04:15:02.448Z,11.42
2018-04-22T04:16:02.695Z,11.46
2018-04-22T04:17:02.934Z,11.60
2018-04-22T04:18:03.173Z,11.64
2018-04-22T04:19:03.415Z,11.52
2018-04-22T04:20:03.655Z,11.49
2018-04-22T04:21:03.896Z,11.51
2018-04-22T04:22:04.137Z,11.52
2018-04-22T04:23:04.379Z,11.35
2018-04-22T04:24:04.620Z,11.42
2018-04-22T04:25:04.862Z,11.43
2018-04-22T04:26:05.105Z,11.54
2018-04-22T04:27:05.349Z,11.54
2018-04-22T04:28:05.592Z,11.49
2018-04-22T04:29:05.837Z,11.49
2018-04-22T04:30:06.074Z,11.54
2018-04-22T04:31:06.315Z,11.57
2018-04-22T04:32:06.557Z,11.61
2018-04-22T04:33:06.797Z,11.61
2018-04-22T04:34:07.037Z,11.65
2018-04-22T04:35:07.283Z,11.52
2018-04-22T04:36:07.566Z,11.62
2018-04-22T04:37:07.763Z,11.49
2018-04-22T04:38:08.004Z,11.44
2018-04-22T04:39:08.246Z,11.51
2018-04-22T04:40:08.489Z,11.46
2018-04-22T04:41:08.731Z,11.49
2018-04-22T04:42:08.971Z,11.51
2018-04-22T04:43:09.207Z,11.49
2018-04-22T04:44:09.455Z,11.61
2018-04-22T04:45:09.695Z,11.60
2018-04-22T04:46:09.935Z,11.46
2018-04-22T04:47:10.178Z,11.44
2018-04-22T04:48:10.419Z,11.47
2018-04-22T04:49:10.658Z,11.58
2018-04-22T04:50:10.901Z,11.52
2018-04-22T04:51:11.140Z,11.60
2018-04-22T04:52:11.381Z,11.51
2018-04-22T04:53:11.620Z,11.65
2018-04-22T04:54:11.912Z,11.65
2018-04-22T04:55:12.105Z,11.60
2018-04-22T04:56:12.349Z,11.64
2018-04-22T04:57:12.592Z,11.64
2018-04-22T04:58:12.833Z,11.72
2018-04-22T04:59:13.073Z,11.64
2018-04-22T05:00:13.314Z,11.79
2018-04-22T05:01:13.553Z,11.82
2018-04-22T05:02:13.793Z,11.79
2018-04-22T05:03:14.037Z,11.72
2018-04-22T05:04:14.274Z,11.79
2018-04-22T05:05:14.517Z,11.91
2018-04-22T05:06:14.757Z,12.31
2018-04-22T05:07:15.004Z,12.14
2018-04-22T05:08:15.228Z,11.95
2018-04-22T05:09:15.465Z,11.86
2018-04-22T05:10:15.710Z,11.91
2018-04-22T05:11:15.951Z,11.83
2018-04-22T05:12:16.192Z,11.90
2018-04-22T05:13:16.434Z,11.90
2018-04-22T05:14:16.677Z,11.88
2018-04-22T05:15:16.920Z,11.96
2018-04-22T05:16:17.163Z,12.02
2018-04-22T05:17:17.402Z,11.98
2018-04-22T05:18:17.643Z,11.99
2018-04-22T05:19:17.885Z,12.13
2018-04-22T05:20:18.128Z,12.01
2018-04-22T05:21:18.371Z,12.12
2018-04-22T05:22:18.612Z,12.20
2018-04-22T05:23:18.854Z,12.16
2018-04-22T05:24:19.178Z,12.24
2018-04-22T05:25:19.338Z,12.24
2018-04-22T05:26:19.583Z,12.35
2018-04-22T05:27:19.821Z,12.39
2018-04-22T05:28:20.063Z,12.39
2018-04-22T05:29:20.308Z,12.52
2018-04-22T05:30:20.545Z,12.53
2018-04-22T05:31:20.795Z,12.59
2018-04-22T05:32:21.034Z,12.65
2018-04-22T05:33:21.278Z,12.62
2018-04-22T05:34:21.523Z,12.60
2018-04-22T05:35:21.768Z,12.71
2018-04-22T05:36:22.009Z,12.77
2018-04-22T05:37:22.253Z,12.85
2018-04-22T05:38:22.497Z,12.75
2018-04-22T05:39:22.737Z,12.92
2018-04-22T05:40:22.980Z,12.93
2018-04-22T05:41:23.223Z,12.85
2018-04-22T05:42:23.466Z,12.92
2018-04-22T05:43:23.709Z,13.00
2018-04-22T05:44:23.952Z,13.01
2018-04-22T05:45:24.209Z,12.96
2018-04-22T05:46:24.433Z,12.95
2018-04-22T05:47:24.675Z,12.95
2018-04-22T05:48:24.917Z,13.03
2018-04-22T05:49:25.163Z,13.15
2018-04-22T05:50:25.400Z,13.15
2018-04-22T05:51:25.646Z,13.22
2018-04-22T05:52:25.888Z,13.28
2018-04-22T05:53:26.134Z,13.44
2018-04-22T05:54:26.373Z,13.25
2018-04-22T05:55:26.617Z,13.49
2018-04-22T05:56:26.859Z,13.63
2018-04-22T05:57:27.102Z,13.77
2018-04-22T05:58:27.345Z,13.70
2018-04-22T05:59:27.590Z,13.85
2018-04-22T06:00:27.838Z,13.81
2018-04-22T06:01:28.073Z,13.81
2018-04-22T06:02:28.319Z,13.84
2018-04-22T06:03:28.565Z,14.00
2018-04-22T06:04:28.810Z,14.02
2018-04-22T06:05:29.053Z,14.03
2018-04-22T06:06:29.296Z,14.00
2018-04-22T06:07:29.540Z,14.03
2018-04-22T06:08:29.785Z,14.10
2018-04-22T06:09:30.032Z,14.14
2018-04-22T06:10:30.273Z,14.15
2018-04-22T06:11:30.517Z,14.24
2018-04-22T06:12:30.763Z,14.36
2018-04-22T06:13:31.005Z,14.35
2018-04-22T06:14:31.252Z,14.37
2018-04-22T06:15:31.494Z,14.47
2018-04-22T06:16:31.739Z,14.80
2018-04-22T06:17:31.984Z,14.91
2018-04-22T06:18:32.225Z,14.99
2018-04-22T06:19:32.468Z,15.16
2018-04-22T06:20:32.719Z,15.28
2018-04-22T06:21:33.347Z,15.27
2018-04-22T06:22:33.210Z,15.13
2018-04-22T06:23:33.456Z,15.23
2018-04-22T06:24:33.698Z,15.13
2018-04-22T06:25:33.947Z,15.09
2018-04-22T06:26:34.186Z,15.17
2018-04-22T06:27:34.433Z,15.21
2018-04-22T06:28:34.677Z,15.51
2018-04-22T06:29:34.923Z,15.64
2018-04-22T06:30:35.168Z,15.68
2018-04-22T06:31:35.411Z,15.67
2018-04-22T06:32:35.658Z,15.75
2018-04-22T06:33:35.908Z,16.02
2018-04-22T06:34:36.148Z,16.07
2018-04-22T06:35:36.392Z,16.05
2018-04-22T06:36:36.637Z,16.33
2018-04-22T06:37:36.882Z,16.45
2018-04-22T06:38:37.128Z,16.46
2018-04-22T06:39:37.371Z,17.15
2018-04-22T06:40:37.605Z,18.10
2018-04-22T06:41:37.853Z,18.73
2018-04-22T06:42:38.098Z,19.48
2018-04-22T06:43:38.343Z,19.71
2018-04-22T06:44:38.589Z,19.83
2018-04-22T06:45:38.836Z,20.31
2018-04-22T06:46:39.082Z,21.17
2018-04-22T06:47:39.327Z,21.86
2018-04-22T06:48:39.574Z,22.27
2018-04-22T06:49:39.825Z,22.97
2018-04-22T06:50:40.071Z,23.53
2018-04-22T06:51:40.314Z,24.09
2018-04-22T06:52:40.561Z,24.40
2018-04-22T06:53:40.807Z,24.47
2018-04-22T06:54:41.054Z,24.42
2018-04-22T06:55:41.302Z,24.34
2018-04-22T06:56:41.551Z,24.40
2018-04-22T06:57:41.802Z,24.42
2018-04-22T06:58:42.052Z,24.78
2018-04-22T06:59:42.295Z,24.57
2018-04-22T07:00:42.545Z,23.91
2018-04-22T07:01:42.793Z,23.84
2018-04-22T07:02:43.042Z,23.90
2018-04-22T07:03:43.298Z,24.35
2018-04-22T07:04:43.540Z,24.49
2018-04-22T07:05:43.791Z,25.00
2018-04-22T07:06:44.041Z,24.90
2018-04-22T07:07:44.291Z,25.06
2018-04-22T07:08:44.545Z,26.06
2018-04-22T07:09:44.793Z,25.88
2018-04-22T07:10:45.044Z,26.36
2018-04-22T07:11:45.295Z,26.57
2018-04-22T07:12:45.545Z,26.51
2018-04-22T07:13:45.797Z,26.40
2018-04-22T07:14:46.049Z,26.97
2018-04-22T07:15:46.300Z,27.13
2018-04-22T07:16:46.553Z,27.67
2018-04-22T07:17:46.803Z,27.72
2018-04-22T07:18:47.056Z,27.79
2018-04-22T07:19:47.310Z,27.25
2018-04-22T07:20:47.563Z,27.67
2018-04-22T07:21:47.816Z,27.43
2018-04-22T07:22:48.069Z,27.88
2018-04-22T07:23:48.321Z,27.69
2018-04-22T07:24:48.573Z,27.31
2018-04-22T07:25:48.826Z,27.37
2018-04-22T07:26:49.079Z,26.94
2018-04-22T07:27:49.333Z,27.25
2018-04-22T07:28:49.586Z,27.07
2018-04-22T07:29:49.837Z,27.47
2018-04-22T07:30:51.604Z,27.99
2018-04-22T07:31:50.450Z,28.03
2018-04-22T07:32:50.703Z,28.43
2018-04-22T07:33:50.960Z,28.92
2018-04-22T07:34:51.210Z,28.52
2018-04-22T07:35:51.465Z,28.58
2018-04-22T07:36:51.718Z,28.81
2018-04-22T07:37:51.972Z,29.33
2018-04-22T07:38:52.258Z,29.14
2018-04-22T07:39:52.508Z,27.99
2018-04-22T07:40:52.761Z,28.00
2018-04-22T07:41:53.018Z,27.92
2018-04-22T07:42:53.270Z,27.72
2018-04-22T07:43:53.524Z,28.25
2018-04-22T07:44:53.779Z,28.49
2018-04-22T07:45:54.033Z,28.66
2018-04-22T07:46:54.290Z,29.30
2018-04-22T07:47:54.546Z,29.27
2018-04-22T07:48:54.799Z,29.79
2018-04-22T07:49:55.055Z,30.29
2018-04-22T07:50:55.308Z,30.61
2018-04-22T07:51:55.561Z,30.61
2018-04-22T07:52:55.817Z,30.46
2018-04-22T07:53:56.070Z,30.58
2018-04-22T07:54:56.326Z,30.37
2018-04-22T07:55:56.580Z,30.65
2018-04-22T07:56:56.840Z,30.97
2018-04-22T07:57:57.093Z,30.83
2018-04-22T07:58:57.349Z,30.80
2018-04-22T07:59:57.607Z,31.32
2018-04-22T08:00:57.859Z,30.58
2018-04-22T08:01:58.117Z,30.55
2018-04-22T08:02:58.374Z,30.16
2018-04-22T08:03:58.644Z,29.78
2018-04-22T08:04:58.882Z,29.68
2018-04-22T08:05:59.139Z,29.21
2018-04-22T08:06:59.399Z,29.48
2018-04-22T08:07:59.703Z,29.79
2018-04-22T08:08:59.895Z,29.63
2018-04-22T08:10:00.152Z,29.46
2018-04-22T08:11:00.408Z,29.52
2018-04-22T08:12:00.669Z,28.96
2018-04-22T08:13:00.925Z,29.23
2018-04-22T08:14:01.183Z,29.58
2018-04-22T08:15:01.439Z,30.58
2018-04-22T08:16:01.696Z,30.65
2018-04-22T08:17:01.951Z,30.94
2018-04-22T08:18:02.207Z,30.04
2018-04-22T08:19:02.461Z,29.71
2018-04-22T08:20:02.717Z,29.27
2018-04-22T08:21:02.975Z,29.82
2018-04-22T08:22:03.233Z,28.98
2018-04-22T08:23:03.488Z,27.92
2018-04-22T08:24:03.745Z,27.55
2018-04-22T08:25:04.003Z,27.06
2018-04-22T08:26:04.256Z,26.82
2018-04-22T08:27:04.513Z,26.48
2018-04-22T08:28:04.775Z,27.60
2018-04-22T08:29:05.028Z,27.46
2018-04-22T08:30:05.392Z,28.00
2018-04-22T08:31:05.694Z,27.21
2018-04-22T08:32:05.957Z,26.51
2018-04-22T08:33:06.225Z,26.05
2018-04-22T08:34:06.461Z,25.77
2018-04-22T08:35:06.716Z,25.57
2018-04-22T08:36:06.969Z,26.39
2018-04-22T08:37:07.219Z,28.14
2018-04-22T08:38:07.472Z,28.64
2018-04-22T08:39:07.719Z,29.79
2018-04-22T08:40:07.975Z,30.29
2018-04-22T08:41:08.229Z,30.51
2018-04-22T08:42:08.481Z,31.02
2018-04-22T08:43:08.735Z,31.46
2018-04-22T08:44:08.991Z,31.72
2018-04-22T08:45:09.247Z,32.03
2018-04-22T08:46:09.502Z,32.07
2018-04-22T08:47:09.759Z,32.41
2018-04-22T08:48:10.010Z,32.43
2018-04-22T08:49:10.266Z,32.28
2018-04-22T08:50:10.525Z,32.72
2018-04-22T08:51:10.776Z,32.48
2018-04-22T08:52:11.034Z,32.74
2018-04-22T08:53:11.292Z,31.89
2018-04-22T08:54:11.545Z,31.16
2018-04-22T08:55:11.800Z,31.14
2018-04-22T08:56:12.066Z,31.39
2018-04-22T08:57:12.314Z,31.84
2018-04-22T08:58:12.570Z,32.19
2018-04-22T08:59:12.825Z,32.33
2018-04-22T09:00:13.081Z,32.45
2018-04-22T09:01:13.345Z,32.55
2018-04-22T09:02:13.585Z,32.38
2018-04-22T09:03:13.841Z,32.67
2018-04-22T09:04:14.099Z,32.33
2018-04-22T09:05:14.362Z,32.15
2018-04-22T09:06:14.619Z,32.48
2018-04-22T09:07:14.873Z,31.99
2018-04-22T09:08:15.130Z,31.99
2018-04-22T09:09:15.389Z,32.35
2018-04-22T09:10:15.645Z,32.47
2018-04-22T09:11:15.902Z,32.56
2018-04-22T09:12:16.159Z,31.91
2018-04-22T09:13:16.423Z,31.66
2018-04-22T09:14:16.673Z,31.75
2018-04-22T09:15:16.932Z,31.73
2018-04-22T09:16:17.191Z,31.72
2018-04-22T09:17:17.452Z,31.65
2018-04-22T09:18:17.705Z,31.76
2018-04-22T09:19:17.961Z,32.35
2018-04-22T09:20:18.216Z,32.25
2018-04-22T09:21:18.477Z,32.62
2018-04-22T09:22:18.737Z,32.06
2018-04-22T09:23:18.993Z,32.11
2018-04-22T09:24:19.250Z,32.69
2018-04-22T09:25:19.507Z,32.14
2018-04-22T09:26:19.764Z,32.65
2018-04-22T09:27:20.022Z,32.59
2018-04-22T09:28:20.281Z,33.66
2018-04-22T09:29:20.539Z,33.54
2018-04-22T09:30:20.800Z,31.96
2018-04-22T09:31:21.054Z,32.67
2018-04-22T09:32:21.312Z,32.88
2018-04-22T09:33:21.573Z,31.43
2018-04-22T09:34:21.844Z,31.51
2018-04-22T09:35:22.087Z,32.38
2018-04-22T09:36:22.383Z,32.52
2018-04-22T09:37:22.672Z,33.26
2018-04-22T09:38:22.985Z,32.43
2018-04-22T09:39:23.192Z,32.03
2018-04-22T09:40:23.447Z,32.50
2018-04-22T09:41:23.704Z,33.37
2018-04-22T09:42:23.964Z,33.45
2018-04-22T09:43:24.222Z,33.88
2018-04-22T09:44:24.480Z,34.06
2018-04-22T09:45:24.738Z,33.78
2018-04-22T09:46:25.014Z,33.00
2018-04-22T09:47:25.264Z,33.18
2018-04-22T09:48:25.520Z,33.18
2018-04-22T09:49:25.803Z,33.06
2018-04-22T09:50:26.071Z,32.74
2018-04-22T09:51:26.398Z,33.15
2018-04-22T09:52:26.660Z,33.07
2018-04-22T09:53:27.020Z,32.93
2018-04-22T09:54:27.226Z,33.94
2018-04-22T09:55:27.488Z,30.98
2018-04-22T09:56:27.743Z,30.32
2018-04-22T09:57:28.001Z,31.57
2018-04-22T09:58:28.260Z,32.26
2018-04-22T09:59:28.516Z,31.80
2018-04-22T10:00:28.778Z,30.58
2018-04-22T10:01:29.033Z,30.35
2018-04-22T10:02:29.289Z,31.34
2018-04-22T10:03:29.547Z,32.43
2018-04-22T10:04:29.813Z,32.21
2018-04-22T10:05:30.065Z,32.26
2018-04-22T10:06:30.323Z,32.59
2018-04-22T10:07:30.578Z,32.30
2018-04-22T10:08:30.835Z,31.56
2018-04-22T10:09:31.094Z,31.66
2018-04-22T10:10:31.350Z,31.09
2018-04-22T10:11:31.610Z,30.80
2018-04-22T10:12:31.866Z,30.84
2018-04-22T10:13:32.128Z,30.62
2018-04-22T10:14:32.384Z,30.26
2018-04-22T10:15:32.639Z,31.13
2018-04-22T10:16:32.944Z,30.89
2018-04-22T10:17:33.153Z,31.20
2018-04-22T10:18:33.411Z,31.31
2018-04-22T10:19:33.669Z,30.67
2018-04-22T10:20:33.932Z,31.23
2018-04-22T10:21:34.183Z,30.42
2018-04-22T10:22:34.443Z,28.66
2018-04-22T10:23:34.702Z,28.73
2018-04-22T10:24:34.960Z,29.80
2018-04-22T10:25:35.218Z,31.06
2018-04-22T10:26:35.479Z,31.43
2018-04-22T10:27:35.735Z,32.22
2018-04-22T10:28:35.993Z,32.52
2018-04-22T10:29:36.251Z,32.26
2018-04-22T10:30:36.507Z,32.28
2018-04-22T10:31:36.763Z,32.14
2018-04-22T10:32:37.022Z,33.12
2018-04-22T10:33:37.277Z,32.25
2018-04-22T10:34:37.578Z,30.86
2018-04-22T10:35:37.796Z,30.38
2018-04-22T10:36:38.052Z,31.34
2018-04-22T10:37:38.330Z,31.86
2018-04-22T10:38:38.569Z,32.69
2018-04-22T10:39:38.826Z,32.79
2018-04-22T10:40:39.085Z,32.08
2018-04-22T10:41:39.346Z,33.26
2018-04-22T10:42:39.600Z,33.31
2018-04-22T10:43:39.859Z,33.65
2018-04-22T10:44:40.118Z,33.09
2018-04-22T10:45:40.378Z,31.36
2018-04-22T10:46:40.689Z,29.86
2018-04-22T10:47:40.898Z,28.80
2018-04-22T10:48:41.156Z,30.07
2018-04-22T10:49:41.424Z,30.60
2018-04-22T10:50:41.673Z,29.52
2018-04-22T10:51:41.932Z,29.61
2018-04-22T10:52:42.189Z,29.74
2018-04-22T10:53:42.446Z,31.21
2018-04-22T10:54:42.701Z,31.20
2018-04-22T10:55:42.963Z,31.63
2018-04-22T10:56:43.216Z,32.43
2018-04-22T10:57:43.476Z,33.09
2018-04-22T10:58:43.732Z,32.75
2018-04-22T10:59:43.989Z,32.77
2018-04-22T11:00:44.247Z,31.99
2018-04-22T11:01:44.511Z,31.91
2018-04-22T11:02:44.764Z,32.72
2018-04-22T11:03:45.085Z,33.00
2018-04-22T11:04:45.349Z,33.91
2018-04-22T11:05:45.610Z,34.16
2018-04-22T11:06:45.863Z,32.89
2018-04-22T11:07:46.119Z,32.89
2018-04-22T11:08:46.379Z,32.51
2018-04-22T11:09:46.634Z,32.63
2018-04-22T11:10:46.893Z,32.10
2018-04-22T11:11:47.156Z,31.70
2018-04-22T11:12:47.409Z,32.03
2018-04-22T11:13:47.666Z,33.15
2018-04-22T11:14:47.924Z,32.93
2018-04-22T11:15:48.181Z,32.69
2018-04-22T11:16:48.441Z,32.67
2018-04-22T11:17:48.694Z,32.82
2018-04-22T11:18:48.953Z,32.01
2018-04-22T11:19:49.213Z,31.89
2018-04-22T11:20:49.469Z,32.25
2018-04-22T11:21:49.728Z,31.89
2018-04-22T11:22:49.990Z,31.56
2018-04-22T11:23:50.245Z,31.89
2018-04-22T11:24:50.501Z,30.79
2018-04-22T11:25:50.758Z,30.99
2018-04-22T11:26:51.016Z,31.04
2018-04-22T11:27:51.273Z,30.79
2018-04-22T11:28:51.532Z,30.86
2018-04-22T11:29:51.790Z,31.07
2018-04-22T11:30:52.051Z,31.50
2018-04-22T11:31:52.304Z,32.11
2018-04-22T11:32:52.567Z,32.52
2018-04-22T11:33:52.821Z,32.47
2018-04-22T11:34:53.080Z,31.72
2018-04-22T11:35:53.338Z,32.19
2018-04-22T11:36:53.595Z,31.92
2018-04-22T11:37:53.854Z,32.06
2018-04-22T11:38:54.109Z,32.77
2018-04-22T11:39:54.369Z,32.74
2018-04-22T11:40:54.625Z,32.37
2018-04-22T11:41:54.883Z,32.78
2018-04-22T11:42:55.144Z,33.09
2018-04-22T11:43:55.404Z,32.81
2018-04-22T11:44:55.665Z,32.47
2018-04-22T11:45:55.919Z,33.22
2018-04-22T11:46:56.177Z,33.44
2018-04-22T11:47:56.434Z,34.06
2018-04-22T11:48:56.691Z,34.08
2018-04-22T11:49:56.951Z,32.32
2018-04-22T11:50:57.211Z,32.08
2018-04-22T11:51:57.467Z,32.52
2018-04-22T11:52:57.726Z,32.45
2018-04-22T11:53:57.985Z,33.07
2018-04-22T11:54:58.243Z,33.26
2018-04-22T11:55:58.501Z,32.78
2018-04-22T11:56:58.761Z,32.72
2018-04-22T11:57:59.017Z,32.45
2018-04-22T11:58:59.274Z,32.55
2018-04-22T11:59:59.580Z,32.69
2018-04-22T12:00:59.801Z,32.59
2018-04-22T12:02:00.051Z,31.50
2018-04-22T12:03:00.308Z,30.23
2018-04-22T12:04:00.567Z,30.05
2018-04-22T12:05:00.823Z,30.46
2018-04-22T12:06:01.080Z,30.92
2018-04-22T12:07:01.338Z,31.61
2018-04-22T12:08:01.598Z,31.62
2018-04-22T12:09:01.845Z,32.19
2018-04-22T12:10:02.118Z,32.93
2018-04-22T12:11:02.374Z,32.18
2018-04-22T12:12:02.631Z,32.41
2018-04-22T12:13:02.888Z,33.14
2018-04-22T12:14:03.147Z,32.13
2018-04-22T12:15:03.402Z,31.66
2018-04-22T12:16:03.660Z,30.49
2018-04-22T12:17:03.916Z,29.55
2018-04-22T12:18:04.171Z,28.76
2018-04-22T12:19:04.430Z,28.86
2018-04-22T12:20:04.684Z,29.28
2018-04-22T12:21:04.942Z,30.00
2018-04-22T12:22:05.198Z,31.02
2018-04-22T12:23:05.455Z,31.53
2018-04-22T12:24:05.712Z,31.84
2018-04-22T12:25:05.967Z,32.19
2018-04-22T12:26:06.226Z,32.23
2018-04-22T12:27:06.484Z,31.95
2018-04-22T12:28:06.742Z,31.69
2018-04-22T12:29:06.999Z,31.68
2018-04-22T12:30:07.266Z,31.35
2018-04-22T12:31:07.513Z,31.47
2018-04-22T12:32:07.767Z,31.02
2018-04-22T12:33:08.024Z,31.25
2018-04-22T12:34:08.283Z,30.84
2018-04-22T12:35:08.538Z,30.26
2018-04-22T12:36:08.798Z,30.07
2018-04-22T12:37:09.051Z,29.36
2018-04-22T12:38:09.310Z,29.19
2018-04-22T12:39:09.564Z,29.19
2018-04-22T12:40:09.820Z,29.42
2018-04-22T12:41:10.076Z,30.11
2018-04-22T12:42:10.331Z,30.58
2018-04-22T12:43:10.591Z,31.16
2018-04-22T12:44:10.844Z,31.14
2018-04-22T12:45:11.140Z,30.99
2018-04-22T12:46:11.353Z,31.04
2018-04-22T12:47:11.609Z,30.10
2018-04-22T12:48:11.863Z,30.62
2018-04-22T12:49:12.118Z,31.20
2018-04-22T12:50:12.374Z,31.32
2018-04-22T12:51:12.645Z,31.29
2018-04-22T12:52:12.889Z,31.29
2018-04-22T12:53:13.143Z,31.26
2018-04-22T12:54:13.403Z,31.84
2018-04-22T12:55:13.654Z,31.73